Active alerts


No alerts


weather webcam more information weather webcam


Thunder radar more information blitzortung!


Rain radar more information rain snow radar


Visit our other weather sites:

Template documentation
and downloads

And another site


Nearby METAR Reports

   
EBBR - Brussels International Airport, Belgium
Distance from station: W 9 mi
Updated: Oct 24 2019 12:20 am
Clear  
Clear  
   Wind: South 11.5 mph
Wind: South 11.5 mph
Temperature: 55.4°F
Dew Point: 51.8°F
Humidity: 88%
Barometer: 29.71 inHg
Visibility: More than 6 mi
Cloud details: Clear
EBBR 240520Z 19010KT CAVOK 13/11 Q1006 NOSIG
EBBE - Beauvechain (Bevekom), Belgium
Distance from station: SSE 10 mi
Updated: Oct 24 2019 12:25 am
Mostly Cloudy  
Mostly Cloudy  
   Wind: South 10.4 mph
Wind: South 10.4 mph
Temperature: 57.2°F
Dew Point: 51.8°F
Humidity: 82%
Barometer: 29.74 inHg
Clouds: Mostly Cloudy
Visibility: More than 6 mi
Cloud details: Partly Cloudy 13000 ft,
Mostly Cloudy 19000 ft
EBBE 240525Z 19009KT 9999 SCT130 BKN190 14/11 Q1007 BLU BLU TEMPO WHT
EBDT - Schaffen, Belgium
Distance from station: ENE 18 mi
Updated: Oct 24 2019 12:25 am
Mostly Cloudy  
Mostly Cloudy  
   Wind: South 4.6 mph
Wind: South 4.6 mph
Temperature: 51.8°F
Dew Point: 51.8°F
Humidity: 100%
Barometer: 29.74 inHg
Clouds: Mostly Cloudy
Visibility: 5 mi
Cloud details: Mostly Cloudy 15000 ft
EBDT 240525Z 17004KT 8000 BKN150 11/11 Q1007 BLU WHT TEMPO GRN
EBAW - Antwerp/Deurne, Belgium
Distance from station: NNW 23 mi
Updated: Oct 24 2019 12:20 am
Mist, Shallow Fog, Partly Cloudy  
Mist, Shallow Fog, Partly Cloudy  
   Wind: SE 3.5 mph
Wind: SE 3.5 mph
Temperature: 51.8°F
Dew Point: 51.8°F
Humidity: 100%
Barometer: 29.71 inHg
Clouds: Partly Cloudy
Visibility: 3 mi
Cloud details: Partly Cloudy
EBAW 240520Z 14003KT 5000 BR MIFG NSC 11/11 Q1006
EBCI - Charleroi/Gosselies, Belgium
Distance from station: SSW 32 mi
Updated: Oct 24 2019 12:20 am
Clear  
Clear  
   Wind: South 8.1 mph
Wind: South 8.1 mph
Temperature: 57.2°F
Dew Point: 51.8°F
Humidity: 82%
Barometer: 29.74 inHg
Visibility: More than 6 mi
Cloud details: Clear
EBCI 240520Z 17007KT CAVOK 14/11 Q1007 NOSIG
EBLG - Bierset/Liege, Belgium
Distance from station: ESE 38 mi
Updated: Oct 24 2019 12:20 am
Clear  
Clear  
   Wind: SSE 13.8 mph
Wind: SSE 13.8 mph
Temperature: 55.4°F
Dew Point: 51.8°F
Humidity: 88%
Barometer: 29.77 inHg
Visibility: More than 6 mi
Cloud details: Clear
EBLG 240520Z 16012KT CAVOK 13/11 Q1008 NOSIG

Script developed by  Saratoga-weather.org Adapted for the template by  Weerstation Leuven

You find our weather info also at:

Weather Underground

Midwestern Weather Network

Citizen Weather Observer Program (CWOP)

HAMweather, WeatherForYou, PWS Weather

Equipment we use:

Weather-station
Davis VP2

Weather-program
Cumulus

Davis VP2

Cumulus